Newtownards Airport


Codes: EGAD/
Name: Newtownards Airport
City: Newtownards
Country: United Kingdom
Elevation: 9 ft.

Photos at Newtownards Airport


   Photos courtesy of SpottingLog. You can add your own sightings and photos by signing up for a free trial today.



No photos found.

Weather at Newtownards Airport


Time (UTC)DescriptionTempratureWindCloud coverageVisibilityPressureHumidity
21-Feb-2024 03:00Overcast Clouds7°C18 mph, SE91%10000m1008hPa94%
21-Feb-2024 06:00Moderate Rain8°C25 mph, SE96%1433m1000hPa97%
21-Feb-2024 09:00Light Rain10°C16 mph, S100%10000m992hPa97%
21-Feb-2024 12:00Light Rain12°C20 mph, SW100%10000m991hPa88%
21-Feb-2024 15:00Light Rain10°C18 mph, W98%10000m992hPa82%
21-Feb-2024 18:00Light Rain8°C13 mph, SW79%10000m993hPa84%
21-Feb-2024 21:00Light Rain8°C18 mph, SW68%10000m990hPa83%
22-Feb-2024 00:00Light Rain8°C20 mph, SW71%10000m987hPa81%
22-Feb-2024 03:00Light Rain6°C22 mph, W92%10000m985hPa88%
22-Feb-2024 06:00Overcast Clouds4°C18 mph, SW92%10000m983hPa86%
22-Feb-2024 09:00Overcast Clouds4°C16 mph, SW100%10000m982hPa80%
22-Feb-2024 12:00Overcast Clouds5°C18 mph, W99%10000m980hPa66%
22-Feb-2024 15:00Scattered Clouds6°C18 mph, W46%10000m980hPa71%
22-Feb-2024 18:00Broken Clouds4°C16 mph, SW67%10000m980hPa79%
22-Feb-2024 21:00Broken Clouds3°C13 mph, SW73%10000m980hPa82%
23-Feb-2024 00:00Overcast Clouds3°C16 mph, SW85%10000m979hPa84%
23-Feb-2024 03:00Light Rain3°C18 mph, SW94%10000m979hPa86%
23-Feb-2024 06:00Overcast Clouds3°C18 mph, SW97%10000m979hPa85%
23-Feb-2024 09:00Overcast Clouds3°C18 mph, SW100%10000m980hPa84%
23-Feb-2024 12:00Light Rain5°C18 mph, SW100%10000m981hPa85%
23-Feb-2024 15:00Light Rain6°C16 mph, SW97%10000m981hPa70%
23-Feb-2024 18:00Broken Clouds4°C13 mph, SW70%10000m982hPa76%
23-Feb-2024 21:00Scattered Clouds2°C9 mph, SW45%10000m983hPa88%
24-Feb-2024 00:00Scattered Clouds1°C7 mph, SW32%10000m984hPa92%
24-Feb-2024 03:00Broken Clouds3°C4 mph, SW70%10000m985hPa82%
24-Feb-2024 06:00Broken Clouds2°C4 mph, W82%10000m988hPa84%
24-Feb-2024 09:00Scattered Clouds2°C7 mph, W35%10000m991hPa83%
24-Feb-2024 12:00Few Clouds6°C7 mph, W20%10000m992hPa73%
24-Feb-2024 15:00Light Rain7°C7 mph, NW20%10000m994hPa74%
24-Feb-2024 18:00Light Rain4°C7 mph, NW38%10000m996hPa86%
24-Feb-2024 21:00Clear Sky3°C7 mph, W1%10000m997hPa86%
25-Feb-2024 00:00Clear Sky2°C7 mph, SW0%10000m997hPa86%
25-Feb-2024 03:00Clear Sky2°C7 mph, SW7%10000m996hPa85%
25-Feb-2024 06:00Few Clouds2°C4 mph, SW19%10000m995hPa84%
25-Feb-2024 09:00Broken Clouds4°C4 mph, S84%10000m996hPa83%
25-Feb-2024 12:00Overcast Clouds7°C9 mph, SE91%10000m995hPa70%
25-Feb-2024 15:00Overcast Clouds7°C9 mph, E100%10000m995hPa71%
25-Feb-2024 18:00Overcast Clouds4°C9 mph, E100%10000m996hPa81%
25-Feb-2024 21:00Overcast Clouds4°C11 mph, NE100%10000m997hPa80%
26-Feb-2024 00:00Overcast Clouds4°C11 mph, NE100%10000m998hPa77%